Ana Sayfa
METAR-TAF:

METAR-TAF

Havaalanları :

Washington, Virginia, Amerika Birleşik Devletleri

Enlem: 38-56-05N, Boylam: 077-26-51W, yükseklik: 95 m

Güncel hava durumu gözlemi

Rapor saat 14:52 UTC de 13 dakika önce yapıldı.
Rüzgar kuzeybatıdan 7 kt
Sıcaklık 20°C
Nem 49%
Basınç 1020 hPa
Görüş mesafesi: 16.1 km
500 ft yükseklikte az bulutlu

METAR: KIAD 241452Z 32007KT 10SM FEW005 20/09 A3013 RMK AO2 SLP200 T02000089 51008

Saat: 11:05 (15:05 UTC)

Tahmin

Rapor saat 14:57 UTC de 8 dakika önce yapıldı.
Ayın 24'si saat 15 UTC'den ayın 25'si saat 18 UTC'ye kadar geçerli Tahmin
Rüzgar kuzeybatıdan 7 kt
Görüş mesafesi: 10 km
Açık gökyüzü
Ayın 24'si saat 2200 UTC'den
Rüzgar kuzey/kuzeybatıdan 3 kt
Görüş mesafesi: 10 km
Açık gökyüzü
Ayın 25'si saat 1700 UTC'den
Rüzgar batı/güneybatıdan 3 kt
Görüş mesafesi: 10 km
25000 ft yükseklikte parçalı bulutlu

TAF: KIAD 241457Z 2415/2518 32007KT P6SM SKC FM242200 33003KT P6SM SKC FM251700 25003KT P6SM SCT250

4.000'den fazla havaalanı için hava durumu gözlemleri ve tahminleri (METAR ve TAF raporları).

Kullanılabilir istasyonlar harita üzerinde sarı ve kırmızı noktalarla gösterilir.

İstasyonun adını görmek için fareyi noktanın üzerinde gezdirin.

Sonrasında hava gözlem ve tahminlerini görmek için tıklayın.

Haritayı değiştirmek için: yaklaştırmak için siyah artı işaretli yeşil düğmeye ve uzaklaştırmak için de eksi işaretli düğmeye hızla tıklayın; bitişik haritalar için yeşil okları kullanın.


METAR-TAF: